sensor_id;sensor_type;location;lat;lon;timestamp;temperature;humidity
12370;DHT22;6249;52.128;9.986;2023-07-30T00:00:49;18.60;99.90
12370;DHT22;6249;52.128;9.986;2023-07-30T00:10:50;18.60;99.90
12370;DHT22;6249;52.128;9.986;2023-07-30T00:20:51;18.60;99.90
12370;DHT22;6249;52.128;9.986;2023-07-30T00:30:51;18.50;99.90
12370;DHT22;6249;52.128;9.986;2023-07-30T00:40:54;18.30;99.90
12370;DHT22;6249;52.128;9.986;2023-07-30T00:50:58;18.10;99.90
12370;DHT22;6249;52.128;9.986;2023-07-30T01:01:00;17.90;99.90
12370;DHT22;6249;52.128;9.986;2023-07-30T01:11:02;17.90;99.90
12370;DHT22;6249;52.128;9.986;2023-07-30T01:21:03;18.20;99.90
12370;DHT22;6249;52.128;9.986;2023-07-30T01:31:05;18.10;99.90
12370;DHT22;6249;52.128;9.986;2023-07-30T01:41:06;18.30;99.90
12370;DHT22;6249;52.128;9.986;2023-07-30T01:51:07;18.30;99.90
12370;DHT22;6249;52.128;9.986;2023-07-30T02:01:07;18.30;99.90
12370;DHT22;6249;52.128;9.986;2023-07-30T02:11:09;18.40;99.90
12370;DHT22;6249;52.128;9.986;2023-07-30T02:21:15;18.30;99.90
12370;DHT22;6249;52.128;9.986;2023-07-30T02:31:15;18.20;99.90
12370;DHT22;6249;52.128;9.986;2023-07-30T02:41:16;18.00;99.90
12370;DHT22;6249;52.128;9.986;2023-07-30T02:51:19;17.90;99.90
12370;DHT22;6249;52.128;9.986;2023-07-30T03:01:22;17.60;99.90
12370;DHT22;6249;52.128;9.986;2023-07-30T03:11:23;17.50;99.90
12370;DHT22;6249;52.128;9.986;2023-07-30T03:21:25;17.20;99.90
12370;DHT22;6249;52.128;9.986;2023-07-30T03:31:26;17.00;99.90
12370;DHT22;6249;52.128;9.986;2023-07-30T03:41:31;16.80;99.90
12370;DHT22;6249;52.128;9.986;2023-07-30T03:51:35;16.70;99.90
12370;DHT22;6249;52.128;9.986;2023-07-30T04:01:36;16.60;99.90
12370;DHT22;6249;52.128;9.986;2023-07-30T04:11:37;16.50;99.90
12370;DHT22;6249;52.128;9.986;2023-07-30T04:21:39;16.30;99.90
12370;DHT22;6249;52.128;9.986;2023-07-30T04:31:42;16.20;99.90
12370;DHT22;6249;52.128;9.986;2023-07-30T04:41:43;16.20;99.90
12370;DHT22;6249;52.128;9.986;2023-07-30T04:51:43;16.10;99.90
12370;DHT22;6249;52.128;9.986;2023-07-30T05:01:44;16.10;99.90
12370;DHT22;6249;52.128;9.986;2023-07-30T05:11:44;16.30;99.90
12370;DHT22;6249;52.128;9.986;2023-07-30T05:21:49;16.60;99.90
12370;DHT22;6249;52.128;9.986;2023-07-30T05:31:50;16.80;99.90
12370;DHT22;6249;52.128;9.986;2023-07-30T05:41:51;17.00;99.90
12370;DHT22;6249;52.128;9.986;2023-07-30T05:51:51;17.40;99.90
12370;DHT22;6249;52.128;9.986;2023-07-30T06:01:52;17.60;99.90
12370;DHT22;6249;52.128;9.986;2023-07-30T06:11:52;18.00;99.90
12370;DHT22;6249;52.128;9.986;2023-07-30T06:21:58;18.10;99.90
12370;DHT22;6249;52.128;9.986;2023-07-30T06:31:58;18.30;99.90
12370;DHT22;6249;52.128;9.986;2023-07-30T06:42:01;18.30;99.90
12370;DHT22;6249;52.128;9.986;2023-07-30T06:52:02;18.40;99.90
12370;DHT22;6249;52.128;9.986;2023-07-30T07:02:03;18.70;99.90
12370;DHT22;6249;52.128;9.986;2023-07-30T07:12:08;18.90;99.90
12370;DHT22;6249;52.128;9.986;2023-07-30T07:22:09;19.10;99.90
12370;DHT22;6249;52.128;9.986;2023-07-30T07:32:10;19.10;99.90
12370;DHT22;6249;52.128;9.986;2023-07-30T07:42:11;19.50;99.90
12370;DHT22;6249;52.128;9.986;2023-07-30T07:52:11;19.40;99.90
12370;DHT22;6249;52.128;9.986;2023-07-30T08:02:12;19.60;99.90
12370;DHT22;6249;52.128;9.986;2023-07-30T08:12:13;19.60;99.90
12370;DHT22;6249;52.128;9.986;2023-07-30T08:22:14;20.00;99.90
12370;DHT22;6249;52.128;9.986;2023-07-30T08:32:15;20.40;99.90
12370;DHT22;6249;52.128;9.986;2023-07-30T08:42:18;20.80;99.90
12370;DHT22;6249;52.128;9.986;2023-07-30T08:52:23;21.10;99.90
12370;DHT22;6249;52.128;9.986;2023-07-30T09:02:30;21.00;99.90
12370;DHT22;6249;52.128;9.986;2023-07-30T09:12:35;20.60;99.90
12370;DHT22;6249;52.128;9.986;2023-07-30T09:22:35;20.60;99.90
12370;DHT22;6249;52.128;9.986;2023-07-30T09:32:40;20.90;99.90
12370;DHT22;6249;52.128;9.986;2023-07-30T09:42:46;21.40;99.90
12370;DHT22;6249;52.128;9.986;2023-07-30T09:52:46;21.80;99.90
12370;DHT22;6249;52.128;9.986;2023-07-30T10:02:49;21.60;99.90
12370;DHT22;6249;52.128;9.986;2023-07-30T10:12:53;21.30;99.90
12370;DHT22;6249;52.128;9.986;2023-07-30T10:23:00;21.00;99.90
12370;DHT22;6249;52.128;9.986;2023-07-30T10:33:04;20.70;99.90
12370;DHT22;6249;52.128;9.986;2023-07-30T10:43:16;20.80;99.90
12370;DHT22;6249;52.128;9.986;2023-07-30T10:53:16;21.20;99.90
12370;DHT22;6249;52.128;9.986;2023-07-30T11:03:21;20.70;99.90
12370;DHT22;6249;52.128;9.986;2023-07-30T11:13:24;20.50;99.90
12370;DHT22;6249;52.128;9.986;2023-07-30T11:23:24;20.60;99.90
12370;DHT22;6249;52.128;9.986;2023-07-30T11:33:26;20.90;99.90
12370;DHT22;6249;52.128;9.986;2023-07-30T11:43:27;21.00;99.90
12370;DHT22;6249;52.128;9.986;2023-07-30T11:53:50;21.00;99.90
12370;DHT22;6249;52.128;9.986;2023-07-30T12:03:56;20.40;99.90
12370;DHT22;6249;52.128;9.986;2023-07-30T12:13:56;20.70;99.90
12370;DHT22;6249;52.128;9.986;2023-07-30T12:23:57;22.00;99.90
12370;DHT22;6249;52.128;9.986;2023-07-30T12:33:57;22.30;99.90
12370;DHT22;6249;52.128;9.986;2023-07-30T12:43:58;23.60;99.90
12370;DHT22;6249;52.128;9.986;2023-07-30T12:53:59;25.60;98.10
12370;DHT22;6249;52.128;9.986;2023-07-30T13:04:00;26.10;95.90
12370;DHT22;6249;52.128;9.986;2023-07-30T13:14:00;26.50;93.30
12370;DHT22;6249;52.128;9.986;2023-07-30T13:24:01;28.20;90.80
12370;DHT22;6249;52.128;9.986;2023-07-30T13:34:04;27.50;90.80
12370;DHT22;6249;52.128;9.986;2023-07-30T13:44:04;26.90;90.70
12370;DHT22;6249;52.128;9.986;2023-07-30T13:54:05;29.10;83.60
12370;DHT22;6249;52.128;9.986;2023-07-30T14:04:10;27.20;86.40
12370;DHT22;6249;52.128;9.986;2023-07-30T14:14:11;28.20;86.50
12370;DHT22;6249;52.128;9.986;2023-07-30T14:24:14;28.80;84.30
12370;DHT22;6249;52.128;9.986;2023-07-30T14:34:14;27.20;89.80
12370;DHT22;6249;52.128;9.986;2023-07-30T14:44:15;28.20;86.50
12370;DHT22;6249;52.128;9.986;2023-07-30T14:54:15;26.90;88.80
12370;DHT22;6249;52.128;9.986;2023-07-30T15:04:18;24.40;91.60
12370;DHT22;6249;52.128;9.986;2023-07-30T15:14:19;23.00;93.80
12370;DHT22;6249;52.128;9.986;2023-07-30T15:24:19;22.70;95.00
12370;DHT22;6249;52.128;9.986;2023-07-30T15:34:20;21.40;99.90
12370;DHT22;6249;52.128;9.986;2023-07-30T15:44:23;19.10;99.90
12370;DHT22;6249;52.128;9.986;2023-07-30T15:54:34;19.60;99.90
12370;DHT22;6249;52.128;9.986;2023-07-30T16:04:35;24.40;99.90
12370;DHT22;6249;52.128;9.986;2023-07-30T16:14:35;25.40;98.50
12370;DHT22;6249;52.128;9.986;2023-07-30T16:24:41;23.80;99.90
12370;DHT22;6249;52.128;9.986;2023-07-30T16:34:44;22.40;99.90
12370;DHT22;6249;52.128;9.986;2023-07-30T16:44:47;21.90;99.90
12370;DHT22;6249;52.128;9.986;2023-07-30T16:54:50;21.70;99.90
12370;DHT22;6249;52.128;9.986;2023-07-30T17:04:51;21.50;99.90
12370;DHT22;6249;52.128;9.986;2023-07-30T17:14:51;21.30;99.90
12370;DHT22;6249;52.128;9.986;2023-07-30T17:24:52;21.30;99.90
12370;DHT22;6249;52.128;9.986;2023-07-30T17:34:58;21.30;99.90
12370;DHT22;6249;52.128;9.986;2023-07-30T17:44:59;21.00;99.90
12370;DHT22;6249;52.128;9.986;2023-07-30T17:55:02;20.50;99.90
12370;DHT22;6249;52.128;9.986;2023-07-30T18:05:03;20.30;99.90
12370;DHT22;6249;52.128;9.986;2023-07-30T18:15:04;20.10;99.90
12370;DHT22;6249;52.128;9.986;2023-07-30T18:25:05;20.00;99.90
12370;DHT22;6249;52.128;9.986;2023-07-30T18:35:09;20.10;99.90
12370;DHT22;6249;52.128;9.986;2023-07-30T18:45:15;19.90;99.90
12370;DHT22;6249;52.128;9.986;2023-07-30T18:55:16;19.70;99.90
12370;DHT22;6249;52.128;9.986;2023-07-30T19:05:16;19.70;99.90
12370;DHT22;6249;52.128;9.986;2023-07-30T19:15:17;19.40;99.90
12370;DHT22;6249;52.128;9.986;2023-07-30T19:25:18;19.50;99.90
12370;DHT22;6249;52.128;9.986;2023-07-30T19:35:21;19.40;99.90
12370;DHT22;6249;52.128;9.986;2023-07-30T19:45:21;19.30;99.90
12370;DHT22;6249;52.128;9.986;2023-07-30T19:55:22;19.30;99.90
12370;DHT22;6249;52.128;9.986;2023-07-30T20:05:22;19.20;99.90
12370;DHT22;6249;52.128;9.986;2023-07-30T20:15:23;19.20;99.90
12370;DHT22;6249;52.128;9.986;2023-07-30T20:25:24;19.00;99.90
12370;DHT22;6249;52.128;9.986;2023-07-30T20:35:25;18.80;99.90
12370;DHT22;6249;52.128;9.986;2023-07-30T20:45:28;18.70;99.90
12370;DHT22;6249;52.128;9.986;2023-07-30T20:55:28;18.80;99.90
12370;DHT22;6249;52.128;9.986;2023-07-30T21:05:29;18.70;99.90
12370;DHT22;6249;52.128;9.986;2023-07-30T21:15:29;18.60;99.90
12370;DHT22;6249;52.128;9.986;2023-07-30T21:25:31;18.40;99.90
12370;DHT22;6249;52.128;9.986;2023-07-30T21:35:32;18.40;99.90
12370;DHT22;6249;52.128;9.986;2023-07-30T21:45:33;18.30;99.90
12370;DHT22;6249;52.128;9.986;2023-07-30T21:55:33;18.40;99.90
12370;DHT22;6249;52.128;9.986;2023-07-30T22:05:38;18.60;99.90
12370;DHT22;6249;52.128;9.986;2023-07-30T22:15:41;18.60;99.90
12370;DHT22;6249;52.128;9.986;2023-07-30T22:25:42;18.70;99.90
12370;DHT22;6249;52.128;9.986;2023-07-30T22:35:43;17.40;99.90
12370;DHT22;6249;52.128;9.986;2023-07-30T22:45:44;16.40;99.90
12370;DHT22;6249;52.128;9.986;2023-07-30T22:55:47;16.20;99.90
12370;DHT22;6249;52.128;9.986;2023-07-30T23:05:48;16.20;99.90
12370;DHT22;6249;52.128;9.986;2023-07-30T23:15:51;16.50;99.90
12370;DHT22;6249;52.128;9.986;2023-07-30T23:25:52;16.60;99.90
12370;DHT22;6249;52.128;9.986;2023-07-30T23:35:55;16.60;99.90
12370;DHT22;6249;52.128;9.986;2023-07-30T23:45:56;16.60;99.90
12370;DHT22;6249;52.128;9.986;2023-07-30T23:55:59;16.40;99.90
